Time;durP1;ratioP1;P1;durP2;ratioP2;P2;SDS_P1;SDS_P2;PMS_P1;PMS_P2;Temp;Humidity;BMP_temperature;BMP_pressure;BME280_temperature;BME280_humidity;BME280_pressure;Samples;Min_cycle;Max_cycle;Signal;HPM_P1;HPM_P2
2023/11/14 00:02:02;;;;;;;33.08;5.05;;;;;;;;;;5026262;28;20296;-68
2023/11/14 00:04:28;;;;;;;33.78;6.18;;;;;;;;;;5029940;28;20187;-68
2023/11/14 00:06:53;;;;;;;40.72;5.80;;;;;;;;;;5038921;28;20335;-69
2023/11/14 00:09:19;;;;;;;42.58;6.50;;;;;;;;;;5046666;28;20288;-68
2023/11/14 00:11:45;;;;;;;32.88;5.10;;;;;;;;;;5041329;28;20635;-68
2023/11/14 00:14:10;;;;;;;36.88;6.22;;;;;;;;;;5051494;28;21001;-69
2023/11/14 00:16:36;;;;;;;37.25;5.45;;;;;;;;;;5037873;28;20190;-69
2023/11/14 00:19:01;;;;;;;40.33;5.55;;;;;;;;;;5050036;28;20185;-70
2023/11/14 00:21:27;;;;;;;34.67;5.72;;;;;;;;;;5032561;28;20190;-68
2023/11/14 00:23:52;;;;;;;36.72;5.50;;;;;;;;;;5038912;28;20243;-69
2023/11/14 00:26:18;;;;;;;39.17;5.68;;;;;;;;;;5041902;28;20193;-68
2023/11/14 00:28:43;;;;;;;28.67;5.18;;;;;;;;;;5045957;28;20186;-68
2023/11/14 00:31:09;;;;;;;32.67;5.30;;;;;;;;;;5031885;28;20197;-68
2023/11/14 00:33:34;;;;;;;31.67;5.25;;;;;;;;;;5034284;28;20225;-69
2023/11/14 00:36:00;;;;;;;42.65;5.78;;;;;;;;;;5041751;28;20186;-70
2023/11/14 00:38:26;;;;;;;35.85;5.72;;;;;;;;;;5044291;28;20191;-69
2023/11/14 00:40:52;;;;;;;39.72;5.82;;;;;;;;;;5039465;28;20215;-68
2023/11/14 00:43:18;;;;;;;42.67;5.65;;;;;;;;;;5046072;28;20319;-69
2023/11/14 00:45:43;;;;;;;37.55;5.10;;;;;;;;;;5046463;28;20201;-68
2023/11/14 00:48:08;;;;;;;37.53;6.13;;;;;;;;;;5030264;28;20340;-67
2023/11/14 00:50:34;;;;;;;43.83;5.75;;;;;;;;;;5044319;28;20264;-71
2023/11/14 00:52:59;;;;;;;37.88;5.72;;;;;;;;;;5037392;28;20555;-69
2023/11/14 00:55:25;;;;;;;30.27;4.88;;;;;;;;;;5050075;28;20209;-68
2023/11/14 00:57:50;;;;;;;37.10;5.90;;;;;;;;;;5035394;28;20240;-69
2023/11/14 01:00:17;;;;;;;41.60;6.10;;;;;;;;;;5039216;28;20643;-71
2023/11/14 01:02:42;;;;;;;44.65;6.68;;;;;;;;;;5032229;28;20273;-70
2023/11/14 01:05:08;;;;;;;39.67;5.65;;;;;;;;;;5038421;28;20270;-71
2023/11/14 01:07:34;;;;;;;43.95;6.32;;;;;;;;;;5044430;28;20194;-72
2023/11/14 01:10:00;;;;;;;45.85;6.80;;;;;;;;;;5029624;28;20261;-72
2023/11/14 01:12:25;;;;;;;45.42;6.57;;;;;;;;;;5038700;28;20272;-71
2023/11/14 01:14:51;;;;;;;48.67;7.22;;;;;;;;;;5034109;28;20293;-72
2023/11/14 01:17:16;;;;;;;44.22;6.97;;;;;;;;;;5039631;28;20514;-70
2023/11/14 01:19:41;;;;;;;48.03;6.78;;;;;;;;;;5041804;28;20268;-71
2023/11/14 01:22:07;;;;;;;44.42;6.20;;;;;;;;;;5040148;28;20684;-69
2023/11/14 01:24:33;;;;;;;46.97;6.18;;;;;;;;;;5032815;28;20532;-68
2023/11/14 01:26:58;;;;;;;44.50;6.22;;;;;;;;;;5035851;28;20268;-69
2023/11/14 01:29:23;;;;;;;45.97;5.82;;;;;;;;;;5033192;28;20537;-69
2023/11/14 01:31:49;;;;;;;43.20;6.40;;;;;;;;;;5031985;28;20192;-72
2023/11/14 01:34:14;;;;;;;49.17;6.43;;;;;;;;;;5031855;28;20234;-69
2023/11/14 01:36:40;;;;;;;38.65;6.63;;;;;;;;;;5035257;28;20192;-69
2023/11/14 01:39:06;;;;;;;37.47;5.18;;;;;;;;;;5040915;28;20195;-69
2023/11/14 01:41:32;;;;;;;53.78;6.45;;;;;;;;;;5048610;28;20181;-69
2023/11/14 01:43:57;;;;;;;42.50;6.38;;;;;;;;;;5039123;28;20192;-70
2023/11/14 01:46:23;;;;;;;47.88;5.78;;;;;;;;;;5039637;28;20235;-70
2023/11/14 01:48:50;;;;;;;40.05;6.85;;;;;;;;;;5035807;28;20194;-71
2023/11/14 01:51:17;;;;;;;33.35;6.05;;;;;;;;;;5041793;28;20673;-68
2023/11/14 01:53:42;;;;;;;46.55;6.45;;;;;;;;;;5018028;28;20602;-68
2023/11/14 01:56:09;;;;;;;46.22;6.93;;;;;;;;;;5047610;28;20314;-68
2023/11/14 01:58:35;;;;;;;47.72;7.07;;;;;;;;;;5039962;28;20182;-69
2023/11/14 02:01:01;;;;;;;48.17;6.70;;;;;;;;;;5045860;28;20212;-68
2023/11/14 02:03:27;;;;;;;47.08;5.93;;;;;;;;;;5037700;28;20632;-68
2023/11/14 02:05:53;;;;;;;34.97;6.25;;;;;;;;;;5036546;28;20190;-68
2023/11/14 02:08:19;;;;;;;44.85;6.32;;;;;;;;;;5033199;28;20196;-69
2023/11/14 02:10:45;;;;;;;47.47;7.50;;;;;;;;;;5033870;28;20267;-69
2023/11/14 02:13:10;;;;;;;52.30;6.17;;;;;;;;;;5041355;28;20300;-71
2023/11/14 02:15:36;;;;;;;36.65;5.78;;;;;;;;;;5044264;28;20286;-71
2023/11/14 02:18:02;;;;;;;40.25;7.35;;;;;;;;;;5031669;28;20721;-71
2023/11/14 02:20:27;;;;;;;44.90;7.40;;;;;;;;;;5030698;28;20196;-71
2023/11/14 02:22:53;;;;;;;45.30;6.25;;;;;;;;;;5041073;28;20190;-71
2023/11/14 02:25:19;;;;;;;49.03;6.38;;;;;;;;;;5040006;28;20189;-71
2023/11/14 02:27:45;;;;;;;46.17;6.78;;;;;;;;;;5028869;28;20190;-72
2023/11/14 02:30:11;;;;;;;46.70;6.72;;;;;;;;;;5029181;28;20200;-71
2023/11/14 02:32:36;;;;;;;50.47;7.05;;;;;;;;;;5037158;28;20598;-70
2023/11/14 02:35:02;;;;;;;46.80;7.18;;;;;;;;;;5033718;28;20205;-71
2023/11/14 02:37:27;;;;;;;67.82;7.85;;;;;;;;;;5040452;28;20188;-70
2023/11/14 02:39:54;;;;;;;50.75;7.10;;;;;;;;;;5039168;28;20197;-70
2023/11/14 02:42:19;;;;;;;49.33;7.22;;;;;;;;;;5033817;28;20189;-69
2023/11/14 02:44:45;;;;;;;37.83;5.85;;;;;;;;;;5037615;28;20204;-70
2023/11/14 02:47:11;;;;;;;52.03;7.50;;;;;;;;;;5032123;28;20770;-71
2023/11/14 02:50:03;;;;;;;50.20;6.13;;;;;;;;;;5039899;28;20297;-72
2023/11/14 02:52:28;;;;;;;47.35;6.03;;;;;;;;;;5034855;28;20208;-71
2023/11/14 02:54:53;;;;;;;41.65;6.13;;;;;;;;;;5023161;28;20248;-71
2023/11/14 02:57:19;;;;;;;43.45;7.30;;;;;;;;;;5034458;28;20186;-70
2023/11/14 02:59:48;;;;;;;50.45;6.38;;;;;;;;;;5043432;28;20189;-70
2023/11/14 03:02:13;;;;;;;49.65;7.38;;;;;;;;;;5036809;28;20214;-70
2023/11/14 03:04:38;;;;;;;42.47;5.63;;;;;;;;;;5043991;28;20204;-69
2023/11/14 03:07:04;;;;;;;46.85;7.03;;;;;;;;;;5028858;28;20277;-71
2023/11/14 03:09:29;;;;;;;48.38;6.90;;;;;;;;;;5027563;28;20193;-71
2023/11/14 03:11:55;;;;;;;46.05;6.03;;;;;;;;;;5034874;28;20212;-70
2023/11/14 03:14:20;;;;;;;42.78;6.72;;;;;;;;;;5043161;28;20575;-71
2023/11/14 03:16:47;;;;;;;43.13;5.60;;;;;;;;;;5036973;28;20190;-72
2023/11/14 03:19:13;;;;;;;31.45;5.68;;;;;;;;;;5043738;28;20538;-71
2023/11/14 03:21:42;;;;;;;37.47;4.25;;;;;;;;;;5034022;28;20193;-72
2023/11/14 03:24:09;;;;;;;34.83;4.63;;;;;;;;;;5033300;28;20190;-71
2023/11/14 03:26:34;;;;;;;25.20;3.92;;;;;;;;;;5035818;28;20202;-71
2023/11/14 03:28:59;;;;;;;26.58;3.15;;;;;;;;;;5031078;28;20201;-72
2023/11/14 03:31:25;;;;;;;26.42;3.72;;;;;;;;;;5038542;28;20229;-73
2023/11/14 03:33:50;;;;;;;25.75;4.40;;;;;;;;;;5039230;28;20419;-72
2023/11/14 03:36:16;;;;;;;38.80;6.17;;;;;;;;;;5033676;28;20442;-72
2023/11/14 03:38:42;;;;;;;47.08;6.40;;;;;;;;;;5034447;28;20186;-73
2023/11/14 03:41:07;;;;;;;55.60;6.88;;;;;;;;;;5032186;28;20724;-71
2023/11/14 03:43:34;;;;;;;56.22;6.70;;;;;;;;;;5035937;28;20705;-71
2023/11/14 03:45:59;;;;;;;53.78;6.63;;;;;;;;;;5034385;28;20247;-71
2023/11/14 03:48:25;;;;;;;43.47;5.72;;;;;;;;;;5038972;28;20264;-71
2023/11/14 03:50:50;;;;;;;54.33;7.35;;;;;;;;;;5021129;28;20190;-70
2023/11/14 03:53:16;;;;;;;50.25;7.60;;;;;;;;;;5038290;28;20251;-69
2023/11/14 03:55:41;;;;;;;54.67;6.50;;;;;;;;;;5041410;28;20190;-69
2023/11/14 03:58:07;;;;;;;48.00;6.85;;;;;;;;;;5036778;28;20193;-69
2023/11/14 04:00:32;;;;;;;56.90;6.47;;;;;;;;;;5047254;28;20261;-69
2023/11/14 04:02:58;;;;;;;61.08;7.65;;;;;;;;;;5039744;28;20189;-69
2023/11/14 04:05:23;;;;;;;52.55;7.03;;;;;;;;;;5035868;28;20644;-70
2023/11/14 04:07:49;;;;;;;63.55;8.13;;;;;;;;;;5019615;28;20190;-69
2023/11/14 04:10:14;;;;;;;58.85;7.63;;;;;;;;;;5048572;28;20178;-70
2023/11/14 04:12:40;;;;;;;49.90;7.85;;;;;;;;;;5031068;28;20564;-70
2023/11/14 04:15:06;;;;;;;51.40;6.70;;;;;;;;;;5044351;28;20226;-70
2023/11/14 04:17:32;;;;;;;48.55;7.07;;;;;;;;;;5045054;28;20280;-70
2023/11/14 04:19:57;;;;;;;55.30;7.00;;;;;;;;;;5043972;28;20740;-69
2023/11/14 04:22:22;;;;;;;57.88;6.50;;;;;;;;;;5044513;28;20216;-70
2023/11/14 04:24:48;;;;;;;51.17;7.63;;;;;;;;;;5043013;28;20194;-69
2023/11/14 04:27:13;;;;;;;48.28;6.00;;;;;;;;;;5045591;28;20178;-69
2023/11/14 04:29:38;;;;;;;50.92;6.57;;;;;;;;;;5037768;28;20269;-68
2023/11/14 04:32:04;;;;;;;52.35;6.95;;;;;;;;;;5043379;28;20186;-68
2023/11/14 04:34:30;;;;;;;46.10;6.55;;;;;;;;;;5034055;28;20230;-68
2023/11/14 04:36:55;;;;;;;48.47;7.03;;;;;;;;;;5044056;28;20247;-68
2023/11/14 04:39:20;;;;;;;44.30;6.20;;;;;;;;;;5043123;28;20612;-67
2023/11/14 04:41:46;;;;;;;53.67;7.53;;;;;;;;;;5043077;28;20193;-67
2023/11/14 04:44:11;;;;;;;42.85;6.47;;;;;;;;;;5042632;28;20269;-68
2023/11/14 04:46:37;;;;;;;42.92;5.68;;;;;;;;;;5044382;28;20247;-68
2023/11/14 04:49:03;;;;;;;50.97;5.88;;;;;;;;;;5039381;28;20292;-68
2023/11/14 04:51:29;;;;;;;49.40;6.28;;;;;;;;;;5041039;28;20186;-68
2023/11/14 04:53:54;;;;;;;49.53;6.75;;;;;;;;;;5036351;28;20255;-68
2023/11/14 04:56:19;;;;;;;43.22;6.25;;;;;;;;;;5046364;28;20205;-68
2023/11/14 04:58:45;;;;;;;44.63;6.50;;;;;;;;;;5037207;28;20181;-68
2023/11/14 05:01:11;;;;;;;44.38;6.00;;;;;;;;;;5036987;28;20189;-68
2023/11/14 05:03:38;;;;;;;40.10;6.90;;;;;;;;;;5042728;28;20272;-69
2023/11/14 05:06:04;;;;;;;39.95;6.30;;;;;;;;;;5033580;28;20196;-68
2023/11/14 05:08:30;;;;;;;52.13;7.10;;;;;;;;;;5030962;28;20297;-68
2023/11/14 05:10:56;;;;;;;39.05;6.30;;;;;;;;;;5042960;28;20701;-68
2023/11/14 05:13:21;;;;;;;35.55;5.45;;;;;;;;;;5037842;28;20204;-68
2023/11/14 05:15:46;;;;;;;39.97;5.45;;;;;;;;;;5038719;28;20220;-68
2023/11/14 05:18:12;;;;;;;35.55;5.60;;;;;;;;;;5035197;28;20190;-68
2023/11/14 05:20:37;;;;;;;39.40;5.22;;;;;;;;;;5039121;28;20194;-69
2023/11/14 05:23:03;;;;;;;50.35;6.93;;;;;;;;;;5034873;28;20269;-68
2023/11/14 05:25:29;;;;;;;37.33;5.47;;;;;;;;;;5033692;28;20543;-68
2023/11/14 05:27:54;;;;;;;39.63;6.28;;;;;;;;;;5048029;28;20192;-68
2023/11/14 05:30:20;;;;;;;31.52;5.60;;;;;;;;;;5040782;28;20200;-68
2023/11/14 05:32:48;;;;;;;39.00;4.97;;;;;;;;;;5041024;28;20310;-68
2023/11/14 05:35:13;;;;;;;45.47;6.20;;;;;;;;;;5032291;28;20218;-70
2023/11/14 05:37:39;;;;;;;56.13;6.70;;;;;;;;;;5031789;28;20213;-68
2023/11/14 05:40:06;;;;;;;39.55;5.47;;;;;;;;;;5042078;28;20181;-69
2023/11/14 05:42:32;;;;;;;47.20;6.50;;;;;;;;;;5035939;28;20194;-69
2023/11/14 05:44:57;;;;;;;38.50;5.55;;;;;;;;;;5035067;28;20593;-68
2023/11/14 05:47:23;;;;;;;45.22;6.43;;;;;;;;;;5033578;28;20192;-67
2023/11/14 05:49:48;;;;;;;38.35;5.85;;;;;;;;;;5033655;28;20190;-68
2023/11/14 05:52:14;;;;;;;41.03;5.45;;;;;;;;;;5037485;28;20202;-68
2023/11/14 05:54:39;;;;;;;39.33;5.68;;;;;;;;;;5033885;28;20390;-67
2023/11/14 05:57:05;;;;;;;43.08;8.20;;;;;;;;;;5041681;28;20684;-68
2023/11/14 05:59:30;;;;;;;36.50;6.28;;;;;;;;;;5046189;28;20266;-68
2023/11/14 06:01:55;;;;;;;45.53;7.97;;;;;;;;;;5032365;28;20190;-68
2023/11/14 06:04:21;;;;;;;53.50;6.60;;;;;;;;;;5030448;28;20273;-68
2023/11/14 06:06:49;;;;;;;40.28;7.30;;;;;;;;;;5038663;28;20181;-68
2023/11/14 06:09:15;;;;;;;45.30;8.57;;;;;;;;;;5039225;28;20197;-67
2023/11/14 06:11:40;;;;;;;43.22;8.07;;;;;;;;;;5034460;28;20194;-67
2023/11/14 06:14:06;;;;;;;46.58;6.15;;;;;;;;;;5047020;28;20278;-67
2023/11/14 06:16:32;;;;;;;38.35;5.75;;;;;;;;;;5031760;28;20254;-67
2023/11/14 06:18:57;;;;;;;43.50;5.70;;;;;;;;;;5030609;28;20620;-67
2023/11/14 06:21:22;;;;;;;39.60;6.38;;;;;;;;;;5035892;28;20201;-67
2023/11/14 06:23:48;;;;;;;38.33;5.95;;;;;;;;;;5034866;28;20612;-69
2023/11/14 06:26:14;;;;;;;39.35;5.70;;;;;;;;;;5036288;28;20398;-67
2023/11/14 06:28:39;;;;;;;33.05;5.93;;;;;;;;;;5045080;28;20279;-67
2023/11/14 06:31:05;;;;;;;41.22;5.97;;;;;;;;;;5028506;28;20512;-67
2023/11/14 06:33:32;;;;;;;37.92;5.57;;;;;;;;;;5029030;28;20527;-67
2023/11/14 06:35:58;;;;;;;42.15;5.93;;;;;;;;;;5028862;28;20217;-67
2023/11/14 06:38:24;;;;;;;38.92;5.53;;;;;;;;;;5032958;28;20178;-67
2023/11/14 06:40:49;;;;;;;46.88;6.18;;;;;;;;;;5037442;28;20177;-67
2023/11/14 06:43:15;;;;;;;37.10;6.32;;;;;;;;;;5030241;28;20189;-68
2023/11/14 06:45:40;;;;;;;44.30;6.15;;;;;;;;;;5031419;28;20301;-67
2023/11/14 06:48:05;;;;;;;35.58;6.22;;;;;;;;;;5037115;28;20693;-68
2023/11/14 06:50:31;;;;;;;41.70;6.65;;;;;;;;;;5036032;28;20656;-67
2023/11/14 06:52:56;;;;;;;41.55;6.53;;;;;;;;;;5042947;28;20254;-73
2023/11/14 06:55:22;;;;;;;54.97;7.63;;;;;;;;;;5038915;28;20380;-72
2023/11/14 06:57:47;;;;;;;53.10;7.60;;;;;;;;;;5031774;28;20201;-71
2023/11/14 07:00:15;;;;;;;47.22;6.05;;;;;;;;;;5028019;28;20190;-71
2023/11/14 07:02:42;;;;;;;40.67;5.88;;;;;;;;;;5030997;28;20200;-71
2023/11/14 07:05:09;;;;;;;42.95;6.85;;;;;;;;;;5029348;28;20181;-71
2023/11/14 07:07:35;;;;;;;46.65;5.95;;;;;;;;;;5033645;28;20200;-70
2023/11/14 07:10:00;;;;;;;43.17;6.70;;;;;;;;;;5027437;28;20205;-69
2023/11/14 07:12:26;;;;;;;42.30;6.22;;;;;;;;;;5032521;28;20220;-70
2023/11/14 07:14:51;;;;;;;39.75;6.68;;;;;;;;;;5035435;28;20210;-71
2023/11/14 07:17:17;;;;;;;43.75;7.30;;;;;;;;;;5036827;28;20563;-69
2023/11/14 07:19:42;;;;;;;42.35;5.88;;;;;;;;;;5034123;28;20268;-69
2023/11/14 07:22:08;;;;;;;44.58;5.55;;;;;;;;;;5036427;28;20628;-70
2023/11/14 07:24:33;;;;;;;49.25;5.93;;;;;;;;;;5048861;28;20211;-69
2023/11/14 07:26:58;;;;;;;36.72;6.07;;;;;;;;;;5035696;28;20190;-69
2023/11/14 07:29:24;;;;;;;38.15;5.72;;;;;;;;;;5035367;28;20200;-69
2023/11/14 07:31:50;;;;;;;39.95;5.97;;;;;;;;;;5043753;28;20217;-69
2023/11/14 07:34:15;;;;;;;40.70;6.53;;;;;;;;;;5034886;28;20280;-70
2023/11/14 07:36:41;;;;;;;38.45;6.05;;;;;;;;;;5035351;28;20194;-71
2023/11/14 07:39:06;;;;;;;42.65;5.43;;;;;;;;;;5031907;28;20230;-71
2023/11/14 07:41:32;;;;;;;44.50;7.43;;;;;;;;;;5032324;28;20196;-70
2023/11/14 07:43:58;;;;;;;35.45;6.50;;;;;;;;;;5033353;28;20625;-69
2023/11/14 07:46:23;;;;;;;41.38;6.30;;;;;;;;;;5041802;28;20220;-69
2023/11/14 07:48:50;;;;;;;38.15;6.18;;;;;;;;;;5042410;28;20222;-69
2023/11/14 07:51:15;;;;;;;42.65;6.20;;;;;;;;;;5032102;28;20185;-69
2023/11/14 07:53:46;;;;;;;40.28;6.63;;;;;;;;;;5040290;28;20194;-69
2023/11/14 07:56:11;;;;;;;47.67;5.95;;;;;;;;;;5036952;28;20273;-69
2023/11/14 07:58:36;;;;;;;53.22;6.25;;;;;;;;;;5045403;28;20284;-69
2023/11/14 08:01:02;;;;;;;37.45;6.25;;;;;;;;;;5035679;28;20243;-68
2023/11/14 08:03:28;;;;;;;38.72;6.10;;;;;;;;;;5031088;28;20305;-68
2023/11/14 08:05:53;;;;;;;42.78;6.43;;;;;;;;;;5043191;28;20181;-69
2023/11/14 08:08:19;;;;;;;47.10;7.30;;;;;;;;;;5032403;28;20193;-69
2023/11/14 08:10:44;;;;;;;52.83;6.13;;;;;;;;;;5034792;28;20663;-69
2023/11/14 08:13:09;;;;;;;40.50;6.72;;;;;;;;;;5037009;28;20239;-70
2023/11/14 08:15:35;;;;;;;38.47;5.57;;;;;;;;;;5035164;28;20271;-69
2023/11/14 08:18:00;;;;;;;38.40;5.50;;;;;;;;;;5031679;28;20256;-68
2023/11/14 08:20:28;;;;;;;35.50;5.43;;;;;;;;;;5037821;28;20265;-69
2023/11/14 08:22:54;;;;;;;36.05;6.65;;;;;;;;;;5030905;28;20186;-68
2023/11/14 08:25:20;;;;;;;47.03;6.65;;;;;;;;;;5037173;28;20186;-68
2023/11/14 08:27:46;;;;;;;51.30;8.55;;;;;;;;;;5037996;28;20261;-69
2023/11/14 08:30:12;;;;;;;45.58;6.97;;;;;;;;;;5038538;28;20265;-69
2023/11/14 08:32:39;;;;;;;44.03;7.32;;;;;;;;;;5029421;28;20237;-69
2023/11/14 08:35:06;;;;;;;36.22;5.97;;;;;;;;;;5036976;28;20233;-68
2023/11/14 08:37:31;;;;;;;35.83;6.20;;;;;;;;;;5033297;28;20316;-68
2023/11/14 08:39:57;;;;;;;45.17;6.40;;;;;;;;;;5031076;28;20281;-68
2023/11/14 08:42:23;;;;;;;45.15;7.00;;;;;;;;;;5032897;28;20194;-69
2023/11/14 08:44:49;;;;;;;44.97;6.63;;;;;;;;;;5039316;28;20271;-68
2023/11/14 08:47:14;;;;;;;43.38;7.47;;;;;;;;;;5033539;28;20190;-69
2023/11/14 08:49:40;;;;;;;45.47;6.82;;;;;;;;;;5031782;28;20319;-68
2023/11/14 08:52:06;;;;;;;44.20;6.10;;;;;;;;;;5031347;28;20186;-69
2023/11/14 08:54:32;;;;;;;41.78;5.82;;;;;;;;;;5037859;28;20206;-69
2023/11/14 08:56:58;;;;;;;53.25;6.47;;;;;;;;;;5045153;28;20169;-70
2023/11/14 08:59:23;;;;;;;48.38;6.38;;;;;;;;;;5035312;28;20201;-69
2023/11/14 09:01:49;;;;;;;42.63;6.75;;;;;;;;;;5052430;28;20256;-68
2023/11/14 09:04:14;;;;;;;56.38;7.10;;;;;;;;;;5035272;28;20276;-68
2023/11/14 09:06:40;;;;;;;41.28;6.78;;;;;;;;;;5041147;28;20186;-68
2023/11/14 09:09:05;;;;;;;40.30;5.80;;;;;;;;;;5032728;28;20543;-69
2023/11/14 09:11:31;;;;;;;40.95;6.40;;;;;;;;;;5033044;28;20647;-69
2023/11/14 09:13:58;;;;;;;35.00;6.32;;;;;;;;;;5041778;28;20210;-69
2023/11/14 09:16:24;;;;;;;47.28;7.35;;;;;;;;;;5038705;28;20230;-69
2023/11/14 09:18:50;;;;;;;38.65;6.40;;;;;;;;;;5038343;28;20185;-69
2023/11/14 09:21:17;;;;;;;51.67;6.97;;;;;;;;;;5035792;28;20194;-68
2023/11/14 09:23:43;;;;;;;48.65;5.78;;;;;;;;;;5045974;28;20679;-68
2023/11/14 09:26:09;;;;;;;38.85;6.07;;;;;;;;;;5032626;28;20197;-69
2023/11/14 09:28:36;;;;;;;46.83;6.20;;;;;;;;;;5031693;28;20198;-69
2023/11/14 09:31:02;;;;;;;48.53;6.03;;;;;;;;;;5036186;28;20192;-69
2023/11/14 09:33:29;;;;;;;41.38;6.03;;;;;;;;;;5044859;28;20233;-70
2023/11/14 09:35:54;;;;;;;41.63;6.40;;;;;;;;;;5035402;28;20204;-68
2023/11/14 09:38:21;;;;;;;41.80;6.03;;;;;;;;;;5032224;28;20621;-69
2023/11/14 09:40:46;;;;;;;34.78;6.05;;;;;;;;;;5039115;28;20766;-69
2023/11/14 09:43:12;;;;;;;36.25;5.63;;;;;;;;;;5039740;28;20213;-69
2023/11/14 09:45:40;;;;;;;36.22;5.70;;;;;;;;;;5045106;28;20592;-68
2023/11/14 09:48:08;;;;;;;43.83;5.40;;;;;;;;;;5044934;28;20247;-68
2023/11/14 09:50:35;;;;;;;32.47;5.85;;;;;;;;;;5038915;28;20185;-69
2023/11/14 09:53:04;;;;;;;35.13;5.95;;;;;;;;;;5036480;28;20190;-68
2023/11/14 09:55:29;;;;;;;41.92;7.10;;;;;;;;;;5032892;28;20782;-68
2023/11/14 09:57:55;;;;;;;42.38;6.85;;;;;;;;;;5033411;28;20199;-68
2023/11/14 10:00:22;;;;;;;41.00;7.10;;;;;;;;;;5029831;28;20705;-68
2023/11/14 10:02:48;;;;;;;34.05;5.93;;;;;;;;;;5031690;28;20197;-68
2023/11/14 10:05:13;;;;;;;32.88;5.85;;;;;;;;;;5035475;28;20190;-68
2023/11/14 10:07:40;;;;;;;33.85;4.80;;;;;;;;;;5041997;28;20229;-68
2023/11/14 10:10:06;;;;;;;41.15;6.15;;;;;;;;;;5037991;28;20209;-68
2023/11/14 10:12:32;;;;;;;37.70;5.45;;;;;;;;;;5047044;28;20196;-68
2023/11/14 10:14:58;;;;;;;33.45;5.50;;;;;;;;;;5041328;28;20213;-68
2023/11/14 10:17:29;;;;;;;35.10;5.18;;;;;;;;;;5034931;28;20251;-68
2023/11/14 10:20:02;;;;;;;36.20;5.88;;;;;;;;;;5041858;28;20326;-68
2023/11/14 10:22:29;;;;;;;25.17;5.00;;;;;;;;;;5041937;28;20185;-67
2023/11/14 10:24:56;;;;;;;27.15;4.63;;;;;;;;;;5030959;28;20182;-69
2023/11/14 10:27:36;;;;;;;29.13;4.63;;;;;;;;;;5036330;28;20186;-68
2023/11/14 10:30:02;;;;;;;29.15;4.88;;;;;;;;;;5038204;28;20189;-70
2023/11/14 10:32:28;;;;;;;30.90;5.15;;;;;;;;;;5026229;28;20712;-69
2023/11/14 10:34:54;;;;;;;31.00;4.70;;;;;;;;;;5041227;28;20210;-68
2023/11/14 10:37:33;;;;;;;28.95;4.43;;;;;;;;;;5032043;28;20236;-68
2023/11/14 10:39:58;;;;;;;35.38;7.00;;;;;;;;;;5036324;28;20181;-68
2023/11/14 10:42:24;;;;;;;35.00;6.75;;;;;;;;;;5038373;28;20196;-68
2023/11/14 10:45:01;;;;;;;28.50;5.20;;;;;;;;;;5035549;28;20653;-68
2023/11/14 10:47:43;;;;;;;32.33;5.22;;;;;;;;;;5032581;28;20208;-67
2023/11/14 10:50:26;;;;;;;29.80;5.60;;;;;;;;;;5043272;28;20722;-68
2023/11/14 10:52:52;;;;;;;33.13;5.85;;;;;;;;;;5036071;28;20265;-67
2023/11/14 10:55:20;;;;;;;34.80;5.70;;;;;;;;;;5038539;28;20240;-67
2023/11/14 10:57:49;;;;;;;30.10;5.65;;;;;;;;;;5034300;28;20269;-67
2023/11/14 11:00:14;;;;;;;40.70;6.25;;;;;;;;;;5032518;28;20189;-67
2023/11/14 11:02:41;;;;;;;40.30;5.22;;;;;;;;;;5034844;28;20248;-68
2023/11/14 11:05:09;;;;;;;33.70;5.93;;;;;;;;;;5040525;28;20186;-68
2023/11/14 11:07:36;;;;;;;35.47;5.88;;;;;;;;;;5033098;28;20217;-68
2023/11/14 11:10:03;;;;;;;40.75;6.05;;;;;;;;;;5043663;28;20209;-67
2023/11/14 11:12:31;;;;;;;36.67;5.45;;;;;;;;;;5032830;28;20194;-68
2023/11/14 11:14:57;;;;;;;29.48;5.93;;;;;;;;;;5035583;28;20672;-69
2023/11/14 11:17:43;;;;;;;34.40;5.80;;;;;;;;;;5030965;28;20200;-68
2023/11/14 11:20:20;;;;;;;39.92;6.15;;;;;;;;;;5041132;28;20197;-69
2023/11/14 11:23:10;;;;;;;36.05;6.03;;;;;;;;;;5033268;28;20189;-68
2023/11/14 11:25:36;;;;;;;28.13;4.97;;;;;;;;;;5033295;28;20595;-70
2023/11/14 11:28:20;;;;;;;30.17;5.40;;;;;;;;;;5039193;28;20232;-68
2023/11/14 11:31:04;;;;;;;27.73;5.10;;;;;;;;;;5030080;28;20213;-69
2023/11/14 11:33:35;;;;;;;35.22;5.00;;;;;;;;;;5029562;28;20233;-68
2023/11/14 11:36:26;;;;;;;34.20;5.20;;;;;;;;;;5042964;28;20218;-69
2023/11/14 11:38:57;;;;;;;30.55;5.32;;;;;;;;;;5035074;28;20201;-68
2023/11/14 11:41:23;;;;;;;35.95;6.20;;;;;;;;;;5032352;28;20235;-68
2023/11/14 11:44:02;;;;;;;35.40;5.97;;;;;;;;;;5033095;28;20178;-69
2023/11/14 11:46:34;;;;;;;32.95;4.88;;;;;;;;;;5030846;28;20675;-69
2023/11/14 11:49:09;;;;;;;37.72;6.18;;;;;;;;;;5037185;28;20667;-69
2023/11/14 11:51:36;;;;;;;41.85;6.47;;;;;;;;;;5031791;28;20634;-68
2023/11/14 11:54:31;;;;;;;36.50;5.22;;;;;;;;;;5027550;28;20353;-68
2023/11/14 11:57:12;;;;;;;30.05;5.57;;;;;;;;;;5040936;28;20237;-68
2023/11/14 11:59:44;;;;;;;37.38;6.22;;;;;;;;;;5036014;28;20293;-69
2023/11/14 12:02:14;;;;;;;32.97;5.47;;;;;;;;;;5043570;28;20197;-69
2023/11/14 12:04:42;;;;;;;30.20;5.80;;;;;;;;;;5040917;28;20186;-68
2023/11/14 12:07:08;;;;;;;31.02;5.63;;;;;;;;;;5040401;28;20202;-68
2023/11/14 12:09:35;;;;;;;44.90;6.88;;;;;;;;;;5039162;28;20673;-69
2023/11/14 12:12:00;;;;;;;38.17;6.15;;;;;;;;;;5042349;28;20208;-69
2023/11/14 12:14:26;;;;;;;33.60;5.18;;;;;;;;;;5041354;28;20214;-68
2023/11/14 12:16:51;;;;;;;29.98;5.20;;;;;;;;;;5049715;28;20621;-69
2023/11/14 12:19:17;;;;;;;35.13;5.65;;;;;;;;;;5044234;28;20282;-69
2023/11/14 12:21:47;;;;;;;42.55;6.30;;;;;;;;;;5039695;28;20190;-68
2023/11/14 12:24:13;;;;;;;37.75;5.72;;;;;;;;;;5036743;28;20186;-68
2023/11/14 12:26:38;;;;;;;36.90;5.97;;;;;;;;;;5039471;28;20190;-68
2023/11/14 12:29:08;;;;;;;33.00;5.57;;;;;;;;;;5046739;28;20196;-69
2023/11/14 12:31:33;;;;;;;35.60;5.70;;;;;;;;;;5035517;28;20217;-67
2023/11/14 12:34:00;;;;;;;36.50;6.30;;;;;;;;;;5031201;28;20265;-69
2023/11/14 12:36:27;;;;;;;31.38;5.60;;;;;;;;;;5043236;28;20193;-68
2023/11/14 12:38:53;;;;;;;35.88;6.30;;;;;;;;;;5036525;28;20224;-68
2023/11/14 12:41:26;;;;;;;39.20;6.22;;;;;;;;;;5032488;28;20773;-68
2023/11/14 12:43:58;;;;;;;37.90;6.90;;;;;;;;;;5042948;28;20188;-67
2023/11/14 12:46:28;;;;;;;34.50;5.78;;;;;;;;;;5033280;28;20633;-67
2023/11/14 12:49:06;;;;;;;38.13;6.72;;;;;;;;;;5038607;28;20216;-68
2023/11/14 12:51:32;;;;;;;35.33;5.82;;;;;;;;;;5032060;28;20579;-67
2023/11/14 12:53:58;;;;;;;40.28;6.32;;;;;;;;;;5037489;28;20233;-67
2023/11/14 12:56:23;;;;;;;34.60;5.65;;;;;;;;;;5039991;28;20216;-67
2023/11/14 12:58:49;;;;;;;35.63;5.35;;;;;;;;;;5044655;28;20181;-67
2023/11/14 13:01:14;;;;;;;29.60;5.80;;;;;;;;;;5041549;28;20501;-67
2023/11/14 13:03:40;;;;;;;38.22;6.85;;;;;;;;;;5040596;28;20775;-67
2023/11/14 13:06:05;;;;;;;38.90;6.22;;;;;;;;;;5038831;28;20943;-68
2023/11/14 13:08:31;;;;;;;36.25;6.05;;;;;;;;;;5034344;28;20201;-67
2023/11/14 13:10:56;;;;;;;33.92;5.53;;;;;;;;;;5031709;28;20247;-68
2023/11/14 13:13:22;;;;;;;34.00;7.20;;;;;;;;;;5036575;28;20541;-67
2023/11/14 13:15:48;;;;;;;38.22;6.13;;;;;;;;;;5048642;28;20228;-67
2023/11/14 13:18:13;;;;;;;37.97;6.63;;;;;;;;;;5031923;28;20190;-68
2023/11/14 13:20:38;;;;;;;32.92;5.45;;;;;;;;;;5029522;28;20676;-67
2023/11/14 13:23:04;;;;;;;35.05;5.50;;;;;;;;;;5036855;28;20182;-67
2023/11/14 13:25:31;;;;;;;30.27;5.57;;;;;;;;;;5043198;28;20279;-68
2023/11/14 13:27:56;;;;;;;37.00;5.65;;;;;;;;;;5039295;28;20182;-67
2023/11/14 13:30:21;;;;;;;34.22;5.82;;;;;;;;;;5045626;28;20718;-68
2023/11/14 13:32:47;;;;;;;28.83;4.97;;;;;;;;;;5042070;28;20356;-67
2023/11/14 13:35:13;;;;;;;34.17;5.28;;;;;;;;;;5046489;28;20215;-68
2023/11/14 13:37:39;;;;;;;27.50;5.55;;;;;;;;;;5034245;28;20186;-67
2023/11/14 13:40:05;;;;;;;33.42;5.45;;;;;;;;;;5043280;28;20188;-68
2023/11/14 13:42:31;;;;;;;36.42;5.68;;;;;;;;;;5032461;28;20560;-68
2023/11/14 13:44:56;;;;;;;35.13;5.53;;;;;;;;;;5032646;28;20185;-68
2023/11/14 13:47:21;;;;;;;29.00;5.53;;;;;;;;;;5042579;28;20273;-68
2023/11/14 13:49:47;;;;;;;37.45;5.95;;;;;;;;;;5028013;28;20190;-68
2023/11/14 13:52:13;;;;;;;33.97;6.20;;;;;;;;;;5036075;28;20792;-68
2023/11/14 13:54:38;;;;;;;27.20;5.05;;;;;;;;;;5029133;28;20300;-68
2023/11/14 13:57:06;;;;;;;25.40;5.25;;;;;;;;;;5038089;28;20190;-68
2023/11/14 13:59:31;;;;;;;32.55;5.63;;;;;;;;;;5031820;28;20190;-68
2023/11/14 14:01:56;;;;;;;36.28;5.90;;;;;;;;;;5029387;28;20405;-68
2023/11/14 14:04:22;;;;;;;32.88;5.32;;;;;;;;;;5032221;28;20194;-68
2023/11/14 14:06:48;;;;;;;29.92;5.03;;;;;;;;;;5038949;28;20536;-67
2023/11/14 14:09:14;;;;;;;29.75;5.18;;;;;;;;;;5043856;28;20196;-69
2023/11/14 14:11:41;;;;;;;36.28;5.95;;;;;;;;;;5035169;28;20705;-67
2023/11/14 14:14:07;;;;;;;29.13;5.28;;;;;;;;;;5031656;28;20201;-68
2023/11/14 14:16:32;;;;;;;30.98;5.47;;;;;;;;;;5028046;28;20189;-68
2023/11/14 14:18:58;;;;;;;27.65;5.43;;;;;;;;;;5026303;28;20783;-69
2023/11/14 14:21:26;;;;;;;32.00;5.38;;;;;;;;;;5041442;28;20189;-68
2023/11/14 14:23:52;;;;;;;30.90;5.50;;;;;;;;;;5038838;28;20195;-68
2023/11/14 14:26:18;;;;;;;29.13;5.43;;;;;;;;;;5043941;28;20233;-68
2023/11/14 14:28:43;;;;;;;20.83;4.82;;;;;;;;;;5043556;28;20209;-68